createdAt,value
2023-01-11T00:00:14.642Z,101723.53
2023-01-11T00:02:41.798Z,101762.28
2023-01-11T00:05:09.734Z,101744.94
2023-01-11T00:07:36.839Z,101759.81
2023-01-11T00:10:05.091Z,101739.25
2023-01-11T00:12:32.378Z,101764.94
2023-01-11T00:14:59.597Z,101761.56
2023-01-11T00:17:29.194Z,101769.78
2023-01-11T00:19:56.368Z,101756.78
2023-01-11T00:22:23.695Z,101773.97
2023-01-11T00:24:53.147Z,101743.59
2023-01-11T00:27:20.332Z,101759.84
2023-01-11T00:29:47.510Z,101766.59
2023-01-11T00:32:14.749Z,101757.44
2023-01-11T00:34:41.881Z,101753.63
2023-01-11T00:37:10.886Z,101761.44
2023-01-11T00:39:37.930Z,101758.28
2023-01-11T00:42:23.355Z,101742.69
2023-01-11T00:45:09.157Z,101744.47
2023-01-11T00:47:54.537Z,101752.44
2023-01-11T00:50:21.727Z,101745.22
2023-01-11T00:52:48.860Z,101736.28
2023-01-11T00:55:16.236Z,101737.16
2023-01-11T00:57:43.304Z,101716.81
2023-01-11T01:00:11.127Z,101720.63
2023-01-11T01:02:38.501Z,101733.50
2023-01-11T01:05:06.407Z,101727.56
2023-01-11T01:07:33.778Z,101744.81
2023-01-11T01:10:00.815Z,101741.19
2023-01-11T01:12:46.617Z,101725.38
2023-01-11T01:15:13.882Z,101711.91
2023-01-11T01:17:40.973Z,101709.81
2023-01-11T01:20:08.911Z,101716.75
2023-01-11T01:22:36.074Z,101703.09
2023-01-11T01:25:03.260Z,101701.09
2023-01-11T01:27:30.471Z,101705.84
2023-01-11T01:29:57.584Z,101698.47
2023-01-11T01:32:24.717Z,101702.97
2023-01-11T01:34:51.881Z,101711.47
2023-01-11T01:37:19.065Z,101701.75
2023-01-11T01:39:46.209Z,101708.94
2023-01-11T01:42:18.947Z,101716.19
2023-01-11T01:44:58.353Z,101706.31
2023-01-11T01:47:34.503Z,101706.25
2023-01-11T01:50:06.833Z,101713.75
2023-01-11T01:52:34.939Z,101701.69
2023-01-11T01:55:07.816Z,101707.28
2023-01-11T01:57:38.389Z,101706.69
2023-01-11T02:00:09.004Z,101712.03
2023-01-11T02:02:37.790Z,101718.88
2023-01-11T02:05:06.425Z,101704.13
2023-01-11T02:07:35.876Z,101694.84
2023-01-11T02:10:08.406Z,101707.56
2023-01-11T02:12:40.148Z,101706.22
2023-01-11T02:15:09.763Z,101711.94
2023-01-11T02:17:39.699Z,101711.16
2023-01-11T02:20:28.375Z,101703.75
2023-01-11T02:23:09.756Z,101728.34
2023-01-11T02:25:51.630Z,101710.81
2023-01-11T02:31:43.148Z,101711.47
2023-01-11T02:34:31.741Z,101696.00
2023-01-11T02:37:30.524Z,101704.38
2023-01-11T02:40:12.561Z,101711.03
2023-01-11T02:43:02.130Z,101699.81
2023-01-11T02:45:44.519Z,101692.25
2023-01-11T02:48:23.816Z,101708.91
2023-01-11T02:50:58.616Z,101683.69
2023-01-11T02:53:36.954Z,101705.13
2023-01-11T02:56:10.445Z,101683.69
2023-01-11T02:58:40.821Z,101700.44
2023-01-11T03:01:08.587Z,101706.31
2023-01-11T03:03:36.560Z,101704.25
2023-01-11T03:06:14.074Z,101695.97
2023-01-11T03:09:02.831Z,101702.41
2023-01-11T03:12:33.985Z,101693.53
2023-01-11T03:15:32.133Z,101685.13
2023-01-11T03:18:23.323Z,101689.06
2023-01-11T03:21:16.917Z,101690.47
2023-01-11T03:24:14.666Z,101670.69
2023-01-11T03:27:02.976Z,101685.66
2023-01-11T03:29:48.750Z,101679.16
2023-01-11T03:32:18.554Z,101678.28
2023-01-11T03:34:54.642Z,101684.41
2023-01-11T03:37:48.418Z,101678.09
2023-01-11T03:40:21.948Z,101684.41
2023-01-11T03:43:14.200Z,101701.84
2023-01-11T03:46:10.664Z,101675.69
2023-01-11T03:48:45.024Z,101663.03
2023-01-11T03:51:17.591Z,101686.31
2023-01-11T03:53:48.122Z,101693.25
2023-01-11T03:56:20.398Z,101692.25
2023-01-11T03:58:47.601Z,101670.00
2023-01-11T04:01:15.185Z,101689.03
2023-01-11T04:03:42.414Z,101700.81
2023-01-11T04:06:12.185Z,101693.50
2023-01-11T04:08:39.426Z,101711.66
2023-01-11T04:11:06.822Z,101688.03
2023-01-11T04:13:34.332Z,101698.56
2023-01-11T04:16:01.566Z,101669.25
2023-01-11T04:18:28.796Z,101680.03
2023-01-11T04:20:56.024Z,101662.06
2023-01-11T04:23:23.340Z,101656.19
2023-01-11T04:25:50.612Z,101676.47
2023-01-11T04:28:17.743Z,101647.91
2023-01-11T04:30:44.917Z,101662.41
2023-01-11T04:33:13.446Z,101658.22
2023-01-11T04:35:41.258Z,101666.16
2023-01-11T04:38:08.454Z,101659.75
2023-01-11T04:40:35.563Z,101664.81
2023-01-11T04:43:02.715Z,101656.59
2023-01-11T04:45:31.080Z,101652.44
2023-01-11T04:47:58.821Z,101645.94
2023-01-11T04:50:27.578Z,101649.78
2023-01-11T04:52:54.863Z,101658.41
2023-01-11T04:55:22.222Z,101658.94
2023-01-11T04:57:50.084Z,101638.25
2023-01-11T05:00:17.572Z,101654.75
2023-01-11T05:02:44.723Z,101645.97
2023-01-11T05:05:12.339Z,101682.91
2023-01-11T05:07:39.847Z,101650.28
2023-01-11T05:10:10.817Z,101654.50
2023-01-11T05:12:38.146Z,101646.34
2023-01-11T05:15:05.888Z,101661.50
2023-01-11T05:17:33.136Z,101656.44
2023-01-11T05:20:00.351Z,101633.47
2023-01-11T05:22:27.765Z,101644.09
2023-01-11T05:24:55.242Z,101645.47
2023-01-11T05:27:22.794Z,101628.31
2023-01-11T05:29:50.107Z,101652.50
2023-01-11T05:32:21.579Z,101630.78
2023-01-11T05:34:49.165Z,101635.53
2023-01-11T05:37:16.437Z,101642.91
2023-01-11T05:39:44.074Z,101641.75
2023-01-11T05:42:11.524Z,101648.78
2023-01-11T05:44:58.717Z,101623.97
2023-01-11T05:47:26.351Z,101644.69
2023-01-11T05:49:53.602Z,101654.16
2023-01-11T05:52:21.051Z,101635.78
2023-01-11T05:54:48.363Z,101648.25
2023-01-11T05:57:15.895Z,101640.56
2023-01-11T05:59:43.273Z,101636.34
2023-01-11T06:02:10.906Z,101639.69
2023-01-11T06:04:38.352Z,101629.91
2023-01-11T06:07:06.506Z,101627.00
2023-01-11T06:09:33.693Z,101644.78
2023-01-11T06:12:00.843Z,101642.63
2023-01-11T06:14:27.898Z,101624.13
2023-01-11T06:16:55.302Z,101624.38
2023-01-11T06:19:22.519Z,101631.41
2023-01-11T06:21:49.556Z,101627.03
2023-01-11T06:24:16.747Z,101644.09
2023-01-11T06:26:43.864Z,101638.88
2023-01-11T06:29:11.862Z,101624.84
2023-01-11T06:31:39.076Z,101623.00
2023-01-11T06:34:06.214Z,101655.00
2023-01-11T06:36:33.425Z,101626.63
2023-01-11T06:39:00.516Z,101642.06
2023-01-11T06:41:29.308Z,101626.94
2023-01-11T06:43:56.782Z,101617.13
2023-01-11T06:46:24.033Z,101618.41
2023-01-11T06:48:51.281Z,101608.41
2023-01-11T06:51:18.547Z,101608.47
2023-01-11T06:53:46.696Z,101601.22
2023-01-11T06:56:16.293Z,101603.56
2023-01-11T06:58:45.589Z,101600.25
2023-01-11T07:01:14.831Z,101608.38
2023-01-11T07:03:42.220Z,101628.06
2023-01-11T07:06:09.430Z,101592.31
2023-01-11T07:08:36.699Z,101599.75
2023-01-11T07:11:04.274Z,101591.25
2023-01-11T07:13:31.441Z,101617.34
2023-01-11T07:15:58.779Z,101628.44
2023-01-11T07:18:26.424Z,101641.31
2023-01-11T07:20:53.956Z,101606.66
2023-01-11T07:23:21.192Z,101620.78
2023-01-11T07:25:50.413Z,101621.41
2023-01-11T07:28:17.772Z,101616.66
2023-01-11T07:30:57.366Z,101589.06
2023-01-11T07:33:26.835Z,101599.56
2023-01-11T07:35:54.611Z,101612.56
2023-01-11T07:38:22.746Z,101585.91
2023-01-11T07:40:50.085Z,101593.78
2023-01-11T07:43:23.458Z,101616.41
2023-01-11T07:45:53.167Z,101592.13
2023-01-11T07:48:27.366Z,101595.81
2023-01-11T07:50:55.361Z,101595.03
2023-01-11T07:53:25.907Z,101577.25
2023-01-11T07:55:56.045Z,101601.84
2023-01-11T07:58:24.337Z,101590.47
2023-01-11T08:00:51.675Z,101572.72
2023-01-11T08:03:19.050Z,101582.47
2023-01-11T08:05:53.977Z,101642.13
2023-01-11T08:08:21.526Z,101593.63
2023-01-11T08:11:09.397Z,101555.75
2023-01-11T08:13:55.265Z,101580.72
2023-01-11T08:16:22.575Z,101578.38
2023-01-11T08:18:53.453Z,101596.91
2023-01-11T08:21:30.797Z,101595.78
2023-01-11T08:23:59.425Z,101607.78
2023-01-11T08:26:28.329Z,101594.00
2023-01-11T08:28:55.422Z,101600.25
2023-01-11T08:31:23.021Z,101598.03
2023-01-11T08:37:20.819Z,101584.56
2023-01-11T08:39:49.413Z,101602.28
2023-01-11T08:42:17.125Z,101571.22
2023-01-11T08:44:45.017Z,101589.06
2023-01-11T08:47:14.646Z,101575.19
2023-01-11T08:49:43.276Z,101577.31
2023-01-11T08:52:16.611Z,101555.41
2023-01-11T08:54:44.413Z,101579.75
2023-01-11T08:57:11.828Z,101549.63
2023-01-11T08:59:39.110Z,101550.09
2023-01-11T09:02:06.976Z,101563.72
2023-01-11T09:04:34.354Z,101532.53
2023-01-11T09:07:02.416Z,101516.03
2023-01-11T09:09:30.586Z,101521.66
2023-01-11T09:11:59.204Z,101547.66
2023-01-11T09:14:27.507Z,101529.78
2023-01-11T09:16:55.789Z,101502.50
2023-01-11T09:19:24.008Z,101520.75
2023-01-11T09:21:52.374Z,101517.13
2023-01-11T09:24:19.750Z,101528.56
2023-01-11T09:26:47.137Z,101515.28
2023-01-11T09:29:14.512Z,101516.34
2023-01-11T09:31:42.354Z,101524.41
2023-01-11T09:34:12.587Z,101482.00
2023-01-11T09:36:40.477Z,101502.28
2023-01-11T09:39:14.736Z,101531.69
2023-01-11T09:41:51.746Z,101516.56
2023-01-11T09:44:25.624Z,101523.88
2023-01-11T09:47:00.120Z,101530.06
2023-01-11T09:49:31.761Z,101512.19
2023-01-11T09:52:13.511Z,101523.78
2023-01-11T09:54:41.023Z,101510.44
2023-01-11T09:57:28.164Z,101498.44
2023-01-11T10:00:10.764Z,101500.78
2023-01-11T10:03:14.047Z,101499.63
2023-01-11T10:06:06.632Z,101497.19
2023-01-11T10:18:22.037Z,101469.31
2023-01-11T10:18:53.331Z,101490.81
2023-01-11T10:21:31.991Z,101482.50
2023-01-11T10:24:12.370Z,101486.19
2023-01-11T10:26:40.252Z,101482.03
2023-01-11T10:29:51.196Z,101484.03
2023-01-11T10:32:34.856Z,101461.19
2023-01-11T10:35:34.222Z,101493.75
2023-01-11T10:38:23.305Z,101452.06
2023-01-11T10:41:04.527Z,101480.34
2023-01-11T10:43:37.749Z,101453.78
2023-01-11T10:46:18.547Z,101465.94
2023-01-11T10:48:47.329Z,101474.31
2023-01-11T10:51:37.559Z,101466.50
2023-01-11T10:54:14.658Z,101468.03
2023-01-11T10:57:03.201Z,101448.84
2023-01-11T11:00:00.225Z,101443.63
2023-01-11T11:03:13.581Z,101432.50
2023-01-11T11:06:11.590Z,101457.09
2023-01-11T11:09:23.805Z,101458.41
2023-01-11T11:11:54.455Z,101428.34
2023-01-11T11:14:37.290Z,101434.19
2023-01-11T11:17:16.625Z,101437.09
2023-01-11T11:19:43.851Z,101438.00
2023-01-11T11:22:12.531Z,101416.97
2023-01-11T11:24:45.809Z,101419.31
2023-01-11T11:27:40.801Z,101432.94
2023-01-11T11:30:12.477Z,101447.41
2023-01-11T11:32:44.609Z,101444.72
2023-01-11T11:36:02.395Z,101435.94
2023-01-11T11:38:35.432Z,101422.41
2023-01-11T11:41:08.751Z,101423.56
2023-01-11T11:43:41.522Z,101417.13
2023-01-11T11:46:19.504Z,101426.69
2023-01-11T11:49:25.777Z,101434.00
2023-01-11T11:51:54.232Z,101429.22
2023-01-11T11:54:23.260Z,101433.63
2023-01-11T11:56:51.078Z,101419.97
2023-01-11T11:59:23.379Z,101393.06
2023-01-11T12:01:58.267Z,101416.44
2023-01-11T12:04:49.473Z,101432.63
2023-01-11T12:07:22.461Z,101418.63
2023-01-11T12:09:57.603Z,101425.41
2023-01-11T12:12:27.867Z,101422.09
2023-01-11T12:15:25.208Z,101402.31
2023-01-11T12:17:52.675Z,101396.19
2023-01-11T12:20:22.819Z,101409.31
2023-01-11T12:23:19.491Z,101394.94
2023-01-11T12:25:52.619Z,101389.91
2023-01-11T12:28:44.405Z,101402.16
2023-01-11T12:31:21.050Z,101396.44
2023-01-11T12:34:34.573Z,101383.03
2023-01-11T12:37:45.358Z,101405.28
2023-01-11T12:40:33.663Z,101389.97
2023-01-11T12:43:25.711Z,101380.72
2023-01-11T12:46:04.877Z,101361.59
2023-01-11T12:49:01.467Z,101375.31
2023-01-11T12:51:37.696Z,101398.72
2023-01-11T12:54:25.695Z,101391.34
2023-01-11T12:57:17.930Z,101390.13
2023-01-11T13:00:06.698Z,101371.34
2023-01-11T13:03:02.728Z,101373.38
2023-01-11T13:05:47.862Z,101378.16
2023-01-11T13:08:38.344Z,101353.19
2023-01-11T13:11:35.479Z,101360.31
2023-01-11T13:14:25.843Z,101372.72
2023-01-11T13:17:08.354Z,101374.16
2023-01-11T13:19:57.350Z,101373.16
2023-01-11T13:22:31.019Z,101360.97
2023-01-11T13:24:59.582Z,101389.16
2023-01-11T13:27:31.951Z,101359.00
2023-01-11T13:30:12.819Z,101350.44
2023-01-11T13:32:43.386Z,101338.41
2023-01-11T13:35:20.408Z,101328.22
2023-01-11T13:37:53.892Z,101363.09
2023-01-11T13:40:31.040Z,101333.28
2023-01-11T13:43:04.099Z,101313.41
2023-01-11T13:45:36.459Z,101315.63
2023-01-11T13:48:12.555Z,101327.63
2023-01-11T13:51:06.021Z,101350.00
2023-01-11T13:53:48.325Z,101325.09
2023-01-11T13:56:19.112Z,101344.31
2023-01-11T13:58:57.089Z,101315.94
2023-01-11T14:01:42.750Z,101323.84
2023-01-11T14:04:21.430Z,101325.03
2023-01-11T14:07:13.913Z,101327.03
2023-01-11T14:10:06.092Z,101348.59
2023-01-11T14:12:43.473Z,101324.63
2023-01-11T14:15:31.812Z,101326.91
2023-01-11T14:18:30.528Z,101344.69
2023-01-11T14:21:12.948Z,101292.84
2023-01-11T14:23:57.955Z,101312.72
2023-01-11T14:26:55.256Z,101282.13
2023-01-11T14:30:08.079Z,101298.16
2023-01-11T14:32:57.454Z,101305.53
2023-01-11T14:48:41.386Z,101282.78
2023-01-11T14:51:22.151Z,101264.56
2023-01-11T14:54:01.974Z,101257.38
2023-01-11T14:56:44.458Z,101271.47
2023-01-11T14:59:24.941Z,101291.25
2023-01-11T15:02:05.207Z,101273.47
2023-01-11T15:04:52.767Z,101263.19
2023-01-11T15:07:24.958Z,101263.84
2023-01-11T15:09:54.100Z,101231.88
2023-01-11T15:12:24.737Z,101246.81
2023-01-11T15:15:03.108Z,101228.38
2023-01-11T15:17:50.802Z,101250.69
2023-01-11T15:20:21.628Z,101278.66
2023-01-11T15:23:01.613Z,101233.41
2023-01-11T15:25:33.777Z,101243.59
2023-01-11T15:28:06.005Z,101233.13
2023-01-11T15:30:34.879Z,101245.56
2023-01-11T15:36:12.524Z,101238.50
2023-01-11T15:39:00.469Z,101252.88
2023-01-11T15:42:00.449Z,101235.34
2023-01-11T15:44:49.400Z,101216.13
2023-01-11T15:47:32.138Z,101241.75
2023-01-11T15:50:39.339Z,101242.19
2023-01-11T15:53:07.690Z,101233.84
2023-01-11T15:55:59.853Z,101232.84
2023-01-11T15:58:48.900Z,101245.94
2023-01-11T16:01:25.386Z,101196.38
2023-01-11T16:04:05.605Z,101239.47
2023-01-11T16:06:47.729Z,101225.97
2023-01-11T16:09:33.575Z,101239.91
2023-01-11T16:12:44.999Z,101217.78
2023-01-11T16:15:30.271Z,101206.25
2023-01-11T16:18:11.261Z,101206.09
2023-01-11T16:20:56.049Z,101155.38
2023-01-11T16:23:26.449Z,101197.13
2023-01-11T16:25:57.387Z,101194.41
2023-01-11T16:28:25.868Z,101166.41
2023-01-11T16:31:07.339Z,101191.31
2023-01-11T16:33:35.887Z,101186.19
2023-01-11T16:36:12.378Z,101185.16
2023-01-11T16:39:04.743Z,101182.72
2023-01-11T16:41:46.919Z,101164.38
2023-01-11T16:44:31.223Z,101176.94
2023-01-11T16:47:05.806Z,101206.16
2023-01-11T16:49:34.131Z,101152.56
2023-01-11T16:52:22.466Z,101160.13
2023-01-11T16:54:50.353Z,101158.50
2023-01-11T16:57:20.449Z,101157.59
2023-01-11T17:00:02.409Z,101186.47
2023-01-11T17:02:36.018Z,101164.31
2023-01-11T17:05:03.921Z,101166.22
2023-01-11T17:07:37.091Z,101149.31
2023-01-11T17:10:20.148Z,101171.69
2023-01-11T17:12:57.676Z,101146.75
2023-01-11T17:15:49.671Z,101158.69
2023-01-11T17:18:23.475Z,101116.06
2023-01-11T17:20:54.816Z,101142.31
2023-01-11T17:23:33.518Z,101134.72
2023-01-11T17:26:02.873Z,101098.66
2023-01-11T17:28:38.286Z,101126.91
2023-01-11T17:31:24.906Z,101162.59
2023-01-11T17:34:05.707Z,101145.03
2023-01-11T17:36:33.975Z,101164.47
2023-01-11T17:39:03.310Z,101144.25
2023-01-11T17:41:50.147Z,101142.88
2023-01-11T17:44:43.403Z,101125.81
2023-01-11T17:47:14.078Z,101111.50
2023-01-11T17:49:43.392Z,101114.94
2023-01-11T17:52:18.893Z,101081.25
2023-01-11T17:55:22.309Z,101100.00
2023-01-11T17:58:19.211Z,101133.00
2023-01-11T18:01:10.155Z,101125.41
2023-01-11T18:03:50.673Z,101107.09
2023-01-11T18:06:27.528Z,101097.34
2023-01-11T18:08:58.546Z,101081.66
2023-01-11T18:11:39.381Z,101107.25
2023-01-11T18:14:17.736Z,101131.81
2023-01-11T18:17:07.438Z,101079.78
2023-01-11T18:19:40.663Z,101087.22
2023-01-11T18:22:31.606Z,101053.22
2023-01-11T18:25:04.699Z,101080.31
2023-01-11T18:27:34.270Z,101062.03
2023-01-11T18:30:07.807Z,101072.59
2023-01-11T18:32:42.743Z,101084.78
2023-01-11T18:35:19.129Z,101052.44
2023-01-11T18:37:47.755Z,101051.34
2023-01-11T18:40:16.838Z,101078.34
2023-01-11T18:42:51.987Z,101081.47
2023-01-11T18:45:20.810Z,101070.50
2023-01-11T18:47:48.915Z,101053.91
2023-01-11T18:50:19.345Z,101093.28
2023-01-11T18:52:47.463Z,101067.47
2023-01-11T18:55:15.334Z,101061.94
2023-01-11T18:57:42.680Z,101069.88
2023-01-11T19:00:15.240Z,101049.25
2023-01-11T19:02:44.102Z,101030.31
2023-01-11T19:05:13.608Z,101029.38
2023-01-11T19:07:41.012Z,101008.13
2023-01-11T19:10:09.014Z,100998.41
2023-01-11T19:12:38.824Z,101021.13
2023-01-11T19:15:15.973Z,101028.63
2023-01-11T19:17:48.528Z,101024.09
2023-01-11T19:20:16.257Z,101030.25
2023-01-11T19:22:44.506Z,101011.91
2023-01-11T19:25:12.284Z,101012.53
2023-01-11T19:27:41.987Z,101015.41
2023-01-11T19:30:11.159Z,100997.44
2023-01-11T19:32:38.876Z,100996.06
2023-01-11T19:35:08.291Z,101007.50
2023-01-11T19:37:38.108Z,100970.88
2023-01-11T19:40:06.627Z,100994.03
2023-01-11T19:42:34.025Z,100987.25
2023-01-11T19:45:01.413Z,100994.34
2023-01-11T19:47:28.676Z,101007.84
2023-01-11T19:49:59.114Z,100976.88
2023-01-11T19:52:26.360Z,100978.13
2023-01-11T19:54:57.179Z,101004.81
2023-01-11T19:57:24.494Z,100986.25
2023-01-11T19:59:51.819Z,100995.19
2023-01-11T20:02:20.696Z,100972.25
2023-01-11T20:04:48.230Z,101008.88
2023-01-11T20:07:16.072Z,100999.06
2023-01-11T20:09:44.032Z,101009.69
2023-01-11T20:12:13.474Z,101004.47
2023-01-11T20:14:40.994Z,100991.13
2023-01-11T20:17:08.632Z,101003.56
2023-01-11T20:19:35.948Z,100982.31
2023-01-11T20:22:03.398Z,100978.56
2023-01-11T20:24:31.825Z,100974.16
2023-01-11T20:27:00.860Z,100967.72
2023-01-11T20:29:28.345Z,100969.44
2023-01-11T20:31:58.202Z,100995.88
2023-01-11T20:34:30.420Z,101009.78
2023-01-11T20:36:57.844Z,100989.19
2023-01-11T20:39:26.154Z,100981.63
2023-01-11T20:42:03.157Z,100973.72
2023-01-11T20:44:32.300Z,100990.00
2023-01-11T20:46:59.927Z,100979.13
2023-01-11T20:49:31.657Z,100990.56
2023-01-11T20:51:59.698Z,100986.03
2023-01-11T20:54:27.354Z,100989.66
2023-01-11T20:56:54.794Z,100983.22
2023-01-11T20:59:21.955Z,100954.91
2023-01-11T21:01:50.400Z,100976.94
2023-01-11T21:04:18.805Z,100974.34
2023-01-11T21:06:51.017Z,100975.41
2023-01-11T21:09:19.250Z,100960.91
2023-01-11T21:11:53.481Z,100987.91
2023-01-11T21:14:22.390Z,100974.47
2023-01-11T21:16:50.032Z,100969.50
2023-01-11T21:19:17.700Z,100971.06
2023-01-11T21:21:44.955Z,100985.00
2023-01-11T21:24:14.102Z,100988.03
2023-01-11T21:26:42.971Z,100973.09
2023-01-11T21:29:11.876Z,100984.03
2023-01-11T21:31:40.310Z,100973.84
2023-01-11T21:34:08.074Z,100957.59
2023-01-11T21:36:35.554Z,100966.84
2023-01-11T21:39:03.713Z,100970.59
2023-01-11T21:44:32.502Z,100946.25
2023-01-11T21:47:05.497Z,100936.44
2023-01-11T21:49:33.667Z,100926.72
2023-01-11T21:52:01.158Z,100937.97
2023-01-11T21:54:28.453Z,100936.97
2023-01-11T21:56:55.956Z,100929.34
2023-01-11T21:59:57.340Z,100928.09
2023-01-11T22:02:24.535Z,100928.22
2023-01-11T22:04:56.565Z,100937.19
2023-01-11T22:07:27.974Z,100924.41
2023-01-11T22:10:04.417Z,100905.66
2023-01-11T22:12:34.093Z,100918.97
2023-01-11T22:15:01.626Z,100908.69
2023-01-11T22:17:28.907Z,100896.16
2023-01-11T22:22:48.140Z,100903.53
2023-01-11T22:25:15.893Z,100907.72
2023-01-11T22:27:43.325Z,100887.97
2023-01-11T22:30:12.051Z,100886.09
2023-01-11T22:32:40.941Z,100878.50
2023-01-11T22:35:08.889Z,100906.84
2023-01-11T22:37:36.149Z,100891.72
2023-01-11T22:40:07.758Z,100867.25
2023-01-11T22:42:35.277Z,100879.00
2023-01-11T22:45:04.041Z,100861.91
2023-01-11T22:47:31.870Z,100864.94
2023-01-11T22:49:59.119Z,100896.06
2023-01-11T22:52:26.393Z,100892.28
2023-01-11T22:54:53.737Z,100893.25
2023-01-11T22:57:21.741Z,100879.69
2023-01-11T22:59:49.100Z,100919.75
2023-01-11T23:02:17.188Z,100909.09
2023-01-11T23:04:44.520Z,100870.66
2023-01-11T23:07:12.363Z,100912.84
2023-01-11T23:09:39.660Z,100911.31
2023-01-11T23:12:25.699Z,100886.19
2023-01-11T23:14:53.226Z,100870.81
2023-01-11T23:17:20.959Z,100910.03
2023-01-11T23:19:48.172Z,100903.59
2023-01-11T23:22:17.013Z,100899.97
2023-01-11T23:24:44.356Z,100897.31
2023-01-11T23:27:11.591Z,100910.69
2023-01-11T23:29:39.346Z,100909.34
2023-01-11T23:32:06.721Z,100906.50
2023-01-11T23:34:34.131Z,100928.16
2023-01-11T23:37:01.322Z,100930.19
2023-01-11T23:39:28.419Z,100897.16
2023-01-11T23:42:14.186Z,100902.22
2023-01-11T23:44:41.438Z,100925.28
2023-01-11T23:47:29.840Z,100897.09
2023-01-11T23:50:00.661Z,100891.16
2023-01-11T23:52:30.502Z,100884.47
2023-01-11T23:54:58.040Z,100919.44
2023-01-11T23:57:26.416Z,100881.59
2023-01-11T23:59:53.703Z,100901.19
